Time;durP1;ratioP1;P1;durP2;ratioP2;P2;SDS_P1;SDS_P2;PMS_P1;PMS_P2;Temp;Humidity;BMP_temperature;BMP_pressure;BME280_temperature;BME280_humidity;BME280_pressure;Samples;Min_cycle;Max_cycle;Signal;HPM_P1;HPM_P2
2022/01/12 00:00:22;;;;;;;12.85;7.15;;;2.30;82.40;;;0.97;78.61;97182.03;4021732;34;20585;-84
2022/01/12 00:02:48;;;;;;;10.57;6.82;;;2.30;82.90;;;0.97;78.22;97173.94;4021935;34;20008;-84
2022/01/12 00:05:18;;;;;;;12.10;7.35;;;2.30;82.80;;;0.98;78.56;97172.06;3995045;34;20330;-84
2022/01/12 00:07:50;;;;;;;12.43;7.22;;;2.30;82.90;;;0.97;78.35;97181.22;3995318;34;20308;-84
2022/01/12 00:10:19;;;;;;;10.48;6.53;;;2.30;82.50;;;0.96;78.73;97190.31;4019365;34;20012;-84
2022/01/12 00:12:46;;;;;;;11.45;7.25;;;2.30;82.60;;;0.96;78.68;97185.75;4016745;34;20311;-84
2022/01/12 00:15:14;;;;;;;11.00;7.05;;;2.30;82.80;;;0.97;78.63;97186.59;4038941;34;20216;-84
2022/01/12 00:17:40;;;;;;;11.45;6.85;;;2.30;82.60;;;0.96;78.52;97193.00;4039855;34;20012;-84
2022/01/12 00:20:07;;;;;;;12.57;7.50;;;2.30;82.80;;;0.95;78.60;97194.03;4017569;34;20020;-84
2022/01/12 00:22:34;;;;;;;12.15;7.50;;;2.30;83.00;;;0.95;78.72;97189.47;3995427;34;20040;-83
2022/01/12 00:33:10;;;;;;;12.50;7.43;;;2.30;82.90;;;0.94;78.82;97197.75;4007766;34;20075;-84
2022/01/12 00:35:42;;;;;;;14.00;7.85;;;2.30;82.90;;;0.94;79.16;97203.13;3999537;34;20348;-84
2022/01/12 00:38:09;;;;;;;13.02;7.35;;;2.30;83.00;;;0.94;78.71;97205.84;3997587;34;20304;-84
2022/01/12 00:40:42;;;;;;;11.90;6.78;;;2.30;82.70;;;0.94;79.02;97205.84;3998628;34;20296;-84
2022/01/12 00:43:09;;;;;;;10.63;6.65;;;2.30;83.00;;;0.93;78.70;97204.97;3999188;34;20035;-84
2022/01/12 00:45:38;;;;;;;12.27;7.17;;;2.30;82.80;;;0.93;78.90;97206.84;4019166;34;20300;-84
2022/01/12 00:48:05;;;;;;;11.88;7.35;;;2.30;83.00;;;0.93;78.85;97206.84;3997927;34;20273;-83
2022/01/12 00:50:31;;;;;;;11.13;7.03;;;2.30;83.10;;;0.90;79.23;97203.50;4019475;34;20281;-83
2022/01/12 00:52:58;;;;;;;9.93;5.93;;;2.30;83.20;;;0.92;78.77;97200.59;3997590;34;20272;-83
2022/01/12 00:55:24;;;;;;;12.00;6.60;;;2.30;83.10;;;0.90;78.88;97203.50;3997006;34;20031;-84
2022/01/12 00:57:51;;;;;;;12.10;6.78;;;2.30;83.00;;;0.91;78.97;97198.94;3976287;34;20024;-83
2022/01/12 01:00:19;;;;;;;12.45;7.53;;;2.30;82.90;;;0.90;78.58;97192.72;4042644;34;20278;-84
2022/01/12 01:02:45;;;;;;;10.90;6.70;;;2.20;82.90;;;0.90;78.70;97191.91;3979853;34;20016;-83
2022/01/12 01:05:12;;;;;;;9.23;6.22;;;2.20;83.00;;;0.89;78.83;97199.13;4042574;34;20287;-83
2022/01/12 01:07:38;;;;;;;9.18;6.25;;;2.30;82.90;;;0.89;78.80;97201.81;4036510;29;20349;-88
2022/01/12 01:10:10;;;;;;;11.65;6.95;;;2.20;83.00;;;0.88;78.97;97202.84;3956129;34;20309;-88
2022/01/12 01:12:37;;;;;;;10.90;7.05;;;2.20;83.00;;;0.87;78.87;97198.47;3975451;34;20009;-88
2022/01/12 01:15:10;;;;;;;9.52;6.75;;;2.20;82.90;;;0.86;78.95;97199.50;3952700;34;20297;-86
2022/01/12 01:25:50;;;;;;;10.30;6.45;;;2.20;83.10;;;0.87;79.11;97203.03;3995924;34;20076;-87
2022/01/12 01:28:19;;;;;;;10.95;6.93;;;2.20;83.20;;;0.84;79.01;97204.22;3972889;34;20396;-88
2022/01/12 01:30:45;;;;;;;9.68;6.15;;;2.20;83.10;;;0.85;79.02;97213.16;3993265;34;20081;-88
2022/01/12 01:33:15;;;;;;;11.50;7.03;;;2.20;83.00;;;0.84;79.27;97204.22;3992481;34;20292;-88
2022/01/12 01:35:50;;;;;;;9.27;6.60;;;2.20;83.10;;;0.86;78.81;97212.97;3970580;34;20319;-88
2022/01/12 01:38:16;;;;;;;10.05;6.25;;;2.20;83.00;;;0.87;79.01;97209.25;3992448;34;20305;-87
2022/01/12 01:40:43;;;;;;;11.40;6.40;;;2.20;83.00;;;0.87;78.90;97208.44;4013645;34;20308;-88
2022/01/12 01:43:26;;;;;;;11.40;6.88;;;2.20;83.10;;;0.84;78.61;97198.00;3970421;34;20005;-87
2022/01/12 01:54:19;;;;;;;9.82;6.30;;;2.20;83.10;;;0.85;79.04;97205.06;3994318;34;20307;-87
2022/01/12 01:56:45;;;;;;;8.85;6.18;;;2.20;83.10;;;0.82;78.98;97206.28;3967216;34;20012;-87
2022/01/12 01:59:11;;;;;;;9.63;6.40;;;2.20;83.10;;;0.83;78.61;97213.34;4010299;34;20388;-87
2022/01/12 02:01:43;;;;;;;10.05;6.88;;;2.20;82.90;;;0.84;78.89;97216.88;3991078;34;20235;-87
2022/01/12 02:04:09;;;;;;;11.25;7.18;;;2.20;83.10;;;0.82;79.26;97217.06;3989076;34;20311;-87
2022/01/12 02:06:38;;;;;;;10.10;6.38;;;2.20;83.10;;;0.84;78.81;97227.66;3968729;34;20340;-87
2022/01/12 02:09:05;;;;;;;11.20;6.57;;;2.20;83.10;;;0.82;79.17;97222.47;3963222;34;20296;-87
2022/01/12 02:11:42;;;;;;;10.40;6.25;;;2.20;83.20;;;0.84;79.13;97224.97;4033932;34;20001;-87
2022/01/12 02:14:16;;;;;;;10.38;6.10;;;2.20;83.10;;;0.82;79.26;97217.06;3987726;34;20317;-87
2022/01/12 02:16:58;;;;;;;8.93;6.30;;;2.20;83.10;;;0.82;79.18;97222.47;3973044;34;20649;-87
2022/01/12 02:36:13;;;;;;;9.63;5.97;;;2.20;83.30;;;0.80;79.03;97246.06;3979139;34;20199;-87
2022/01/12 02:41:25;;;;;;;8.10;5.35;;;2.20;83.20;;;0.82;78.94;97238.63;3961208;34;20070;-88
2022/01/12 02:54:50;;;;;;;10.07;6.57;;;2.20;83.40;;;0.80;79.23;97250.59;3970816;34;20012;-87
2022/01/12 02:57:18;;;;;;;9.55;6.03;;;2.20;83.40;;;0.81;79.18;97252.28;3946563;34;20006;-87
2022/01/12 03:00:07;;;;;;;9.45;6.03;;;2.20;83.40;;;0.78;78.90;97248.09;3989394;34;20174;-87
2022/01/12 03:02:38;;;;;;;8.90;5.97;;;2.20;83.10;;;0.81;78.94;97247.75;3976837;34;20306;-88
2022/01/12 03:07:42;;;;;;;9.63;6.15;;;2.20;83.10;;;0.78;78.94;97253.50;3967720;34;20060;-88
2022/01/12 03:10:11;;;;;;;10.27;6.25;;;2.10;83.10;;;0.80;79.00;97259.53;3965733;34;20368;-87
2022/01/12 03:12:42;;;;;;;10.35;6.45;;;2.20;83.10;;;0.81;79.06;97253.13;3946315;34;20134;-87
2022/01/12 03:15:11;;;;;;;9.20;6.03;;;2.20;83.20;;;0.81;79.46;97257.66;3926493;34;20307;-87
2022/01/12 03:17:37;;;;;;;9.95;6.30;;;2.10;83.40;;;0.78;79.23;97250.78;3945956;34;20017;-88
2022/01/12 03:20:06;;;;;;;9.15;6.18;;;2.10;83.20;;;0.79;78.94;97249.78;3926392;34;20190;-87
2022/01/12 03:22:33;;;;;;;9.75;6.10;;;2.10;83.10;;;0.79;78.80;97255.16;3967426;34;20564;-87
2022/01/12 03:25:00;;;;;;;10.40;6.53;;;2.10;83.10;;;0.76;79.06;97251.00;3964419;34;20340;-87
2022/01/12 03:27:28;;;;;;;9.20;5.88;;;2.20;83.20;;;0.78;78.89;97253.50;3970383;34;20281;-87
2022/01/12 03:29:56;;;;;;;9.90;6.30;;;2.20;83.10;;;0.77;78.88;97251.81;3944311;34;20337;-87
2022/01/12 03:32:39;;;;;;;8.93;5.72;;;2.10;83.00;;;0.78;79.00;97261.56;3986037;34;20385;-87
2022/01/12 03:35:10;;;;;;;10.52;6.30;;;2.20;83.20;;;0.76;78.77;97255.53;3988416;34;20308;-87
2022/01/12 03:40:09;;;;;;;9.30;5.93;;;2.10;83.10;;;0.78;79.11;97258.88;3965396;35;20013;-87
2022/01/12 03:42:36;;;;;;;8.75;5.95;;;2.10;83.20;;;0.77;79.03;97262.59;3986316;35;20285;-87
2022/01/12 03:45:03;;;;;;;8.48;5.60;;;2.10;83.10;;;0.77;78.71;97258.03;3943451;35;20242;-86
2022/01/12 03:47:30;;;;;;;9.77;6.22;;;2.10;83.00;;;0.76;78.88;97260.91;3972021;35;20586;-87
2022/01/12 03:49:56;;;;;;;10.45;5.95;;;2.10;83.00;;;0.77;79.04;97254.50;4007728;34;20024;-86
2022/01/12 03:52:23;;;;;;;9.43;5.88;;;2.10;83.20;;;0.76;79.06;97260.91;3986675;35;20341;-87
2022/01/12 03:54:49;;;;;;;8.55;5.75;;;2.10;83.00;;;0.76;79.30;97261.75;3965139;35;19994;-87
2022/01/12 03:57:15;;;;;;;9.95;5.90;;;2.10;83.20;;;0.75;78.94;97265.47;3966320;35;20002;-87
2022/01/12 03:59:42;;;;;;;9.35;5.55;;;2.10;83.10;;;0.74;78.98;97262.94;3990000;34;20690;-86
2022/01/12 04:02:08;;;;;;;9.90;6.25;;;2.10;83.20;;;0.74;79.00;97262.94;3991630;34;19998;-87
2022/01/12 04:04:42;;;;;;;8.77;5.93;;;2.10;83.30;;;0.74;79.16;97260.25;3991156;34;20001;-88
2022/01/12 04:09:54;;;;;;;10.15;6.28;;;2.10;83.40;;;0.74;78.90;97268.34;4016085;34;20354;-87
2022/01/12 04:12:20;;;;;;;9.95;6.15;;;2.10;83.00;;;0.74;79.25;97269.19;4011386;34;20017;-87
2022/01/12 04:14:46;;;;;;;8.43;5.82;;;2.10;82.90;;;0.73;79.35;97267.50;3966285;34;20143;-87
2022/01/12 04:17:14;;;;;;;8.63;6.28;;;2.10;83.20;;;0.72;78.87;97265.84;3987752;34;20323;-87
2022/01/12 04:19:44;;;;;;;9.20;6.57;;;2.10;83.20;;;0.73;79.03;97272.91;3988009;34;20293;-87
2022/01/12 04:24:55;;;;;;;9.70;5.88;;;2.10;83.20;;;0.73;79.08;97272.06;3969132;34;20021;-87
2022/01/12 04:27:21;;;;;;;8.43;5.57;;;2.10;83.10;;;0.71;78.74;97268.72;3965648;34;20341;-87
2022/01/12 04:29:48;;;;;;;8.55;5.88;;;2.10;83.10;;;0.71;79.24;97274.13;3945325;34;20033;-87
2022/01/12 04:32:15;;;;;;;12.55;5.22;;;2.10;83.30;;;0.72;78.79;97275.75;3945502;34;20284;-87
2022/01/12 04:34:41;;;;;;;10.05;5.72;;;2.10;83.10;;;0.70;79.05;97270.56;3990101;34;20009;-87
2022/01/12 04:37:07;;;;;;;9.43;5.90;;;2.10;83.30;;;0.72;79.12;97275.75;3969717;34;19996;-87
2022/01/12 04:39:36;;;;;;;8.77;5.72;;;2.10;83.30;;;0.69;78.75;97274.28;3970765;34;20347;-86
2022/01/12 04:42:03;;;;;;;10.13;6.93;;;2.10;83.10;;;0.70;79.16;97277.81;4013032;34;20287;-86
2022/01/12 04:44:30;;;;;;;9.35;5.28;;;2.10;83.30;;;0.70;79.01;97283.22;4012748;34;20289;-86
2022/01/12 04:47:06;;;;;;;8.48;5.82;;;2.10;83.10;;;0.67;78.75;97275.50;3970241;34;20517;-87
2022/01/12 04:52:05;;;;;;;8.75;5.43;;;2.10;83.20;;;0.70;78.82;97283.22;3969977;34;20287;-86
2022/01/12 04:54:32;;;;;;;8.80;5.68;;;2.10;83.30;;;0.70;78.76;97288.59;3986746;34;20002;-86
2022/01/12 04:56:58;;;;;;;8.88;5.70;;;2.00;83.10;;;0.67;78.85;97286.25;4004289;34;20280;-87
2022/01/12 04:59:26;;;;;;;11.30;6.13;;;2.00;83.10;;;0.69;78.80;97292.31;4003789;34;20211;-85
2022/01/12 05:01:57;;;;;;;8.13;4.93;;;2.00;83.00;;;0.67;79.16;97295.16;3980802;34;20279;-87
2022/01/12 05:07:25;;;;;;;9.40;6.40;;;2.00;82.90;;;0.67;78.87;97307.81;3980547;34;20017;-87
2022/01/12 05:12:54;;;;;;;9.77;6.27;;;2.00;83.10;;;0.66;79.02;97309.66;3985348;34;20001;-86
2022/01/12 05:15:28;;;;;;;10.57;6.55;;;2.00;83.10;;;0.65;79.18;97312.56;3981034;34;20596;-87
2022/01/12 05:17:56;;;;;;;10.40;6.13;;;2.00;83.00;;;0.66;79.09;97308.84;3982203;34;20362;-86
2022/01/12 05:20:24;;;;;;;10.95;6.68;;;2.00;83.20;;;0.66;78.78;97308.84;3997164;34;20041;-87
2022/01/12 05:22:51;;;;;;;12.02;7.07;;;2.00;83.10;;;0.64;79.03;97300.09;3913480;34;20312;-87
2022/01/12 05:25:18;;;;;;;12.70;7.28;;;2.00;83.20;;;0.66;78.91;97306.16;3975394;34;20009;-87
2022/01/12 05:27:46;;;;;;;11.75;8.00;;;2.00;83.20;;;0.63;78.82;97303.81;3912670;34;20524;-86
2022/01/12 05:30:16;;;;;;;10.65;7.20;;;2.00;83.10;;;0.65;78.94;97309.84;3955632;34;20653;-87
2022/01/12 05:32:52;;;;;;;11.27;7.32;;;2.00;83.10;;;0.65;79.19;97313.38;3933705;34;20072;-86
2022/01/12 05:35:26;;;;;;;10.82;6.43;;;2.00;83.10;;;0.63;78.96;97315.44;3974893;34;20213;-87
2022/01/12 05:37:56;;;;;;;12.55;7.18;;;2.00;83.10;;;0.62;79.41;97316.44;3976201;34;20601;-87
2022/01/12 05:40:23;;;;;;;11.98;6.63;;;2.00;83.20;;;0.63;78.65;97315.44;3934852;34;20005;-86
2022/01/12 05:43:14;;;;;;;11.23;6.95;;;2.00;83.30;;;0.64;79.06;97318.97;3936151;34;20303;-88
2022/01/12 05:45:44;;;;;;;11.07;6.85;;;2.00;82.90;;;0.63;78.94;97333.44;3941129;34;20282;-87
2022/01/12 05:50:42;;;;;;;10.43;6.78;;;2.00;83.20;;;0.61;79.46;97339.84;3917173;34;20323;-87
2022/01/12 05:53:19;;;;;;;11.45;7.00;;;2.00;83.20;;;0.61;78.83;97339.03;3980103;34;20036;-87
2022/01/12 05:55:53;;;;;;;11.48;6.75;;;2.00;83.10;;;0.61;78.80;97353.31;3980004;34;20313;-87
2022/01/12 05:58:21;;;;;;;13.27;7.38;;;2.00;82.90;;;0.61;78.88;97353.31;3981349;34;20286;-86
2022/01/12 06:00:48;;;;;;;11.02;7.53;;;2.00;82.90;;;0.61;79.13;97349.81;3963252;34;20060;-87
2022/01/12 06:03:15;;;;;;;11.25;6.72;;;2.00;83.10;;;0.60;78.88;97359.72;3961547;34;20025;-87
2022/01/12 06:05:44;;;;;;;9.90;6.57;;;2.00;83.00;;;0.59;78.94;97354.53;3959513;34;20013;-87
2022/01/12 06:08:13;;;;;;;10.38;7.13;;;2.00;83.20;;;0.60;78.97;97365.13;3964451;34;20284;-87
2022/01/12 06:10:40;;;;;;;11.20;6.90;;;2.00;83.10;;;0.59;78.85;97366.13;3963136;34;20006;-87
2022/01/12 06:13:07;;;;;;;9.57;6.68;;;2.00;83.10;;;0.60;78.90;97369.69;3984271;34;20009;-87
2022/01/12 06:15:34;;;;;;;10.10;6.60;;;2.00;83.10;;;0.59;79.02;97382.31;3941927;34;20014;-86
2022/01/12 06:18:01;;;;;;;10.15;6.47;;;2.00;83.20;;;0.60;78.88;97378.59;3984475;34;20033;-87
2022/01/12 06:20:31;;;;;;;10.63;6.55;;;2.00;83.20;;;0.63;78.74;97373.88;3964206;34;20069;-86
2022/01/12 06:23:07;;;;;;;10.73;6.57;;;2.00;82.90;;;0.67;78.81;97384.09;3985356;34;20295;-87
2022/01/12 06:25:44;;;;;;;11.23;6.60;;;2.00;83.00;;;0.68;78.42;97382.28;3983808;34;20070;-87
2022/01/12 06:28:37;;;;;;;9.75;6.43;;;2.10;83.70;;;0.71;78.62;97381.91;3943799;34;20309;-87
2022/01/12 06:31:17;;;;;;;10.77;6.82;;;2.10;82.70;;;0.76;78.18;97384.91;4001689;34;20412;-87
2022/01/12 06:33:48;;;;;;;9.48;6.28;;;2.10;82.40;;;0.79;78.40;97389.09;4003091;34;20006;-87
2022/01/12 06:36:22;;;;;;;9.43;5.97;;;2.10;82.40;;;0.80;78.23;97391.63;3962386;34;20014;-86
2022/01/12 06:38:49;;;;;;;10.23;6.15;;;2.20;82.40;;;0.83;78.21;97402.06;3984369;34;20010;-87
2022/01/12 06:41:16;;;;;;;8.20;5.55;;;2.20;82.30;;;0.84;78.17;97398.31;3984254;34;20081;-87
2022/01/12 06:43:48;;;;;;;8.80;5.95;;;2.20;82.00;;;0.86;77.84;97407.06;3985566;34;20654;-87
2022/01/12 06:46:23;;;;;;;8.88;5.20;;;2.20;82.10;;;0.88;78.47;97407.72;3941694;34;20281;-86
2022/01/12 06:48:50;;;;;;;8.85;6.22;;;2.20;82.10;;;0.90;77.91;97412.97;3945756;34;20304;-88
2022/01/12 06:51:17;;;;;;;9.57;5.68;;;2.30;82.00;;;0.91;77.62;97415.47;4007759;34;20323;-87
2022/01/12 06:53:56;;;;;;;9.80;6.20;;;2.30;81.60;;;0.94;77.84;97413.44;3969182;34;20298;-88
2022/01/12 06:56:23;;;;;;;7.55;5.93;;;2.30;81.70;;;0.95;77.55;97415.94;3965462;34;20021;-88
2022/01/12 06:58:56;;;;;;;9.82;6.18;;;2.30;81.60;;;0.96;77.58;97420.31;3965649;34;20306;-88
2022/01/12 07:01:26;;;;;;;9.57;6.55;;;2.30;81.50;;;0.97;77.34;97423.88;4008095;34;20307;-87
2022/01/12 07:03:53;;;;;;;10.82;6.25;;;2.30;81.20;;;0.98;77.42;97420.13;4008050;34;20280;-88
2022/01/12 07:06:23;;;;;;;10.13;5.78;;;2.30;81.40;;;0.99;77.36;97427.19;3985896;34;20281;-88
2022/01/12 07:08:49;;;;;;;8.75;5.43;;;2.40;81.20;;;1.01;76.89;97430.56;3964992;34;20005;-87
2022/01/12 07:11:27;;;;;;;8.90;5.93;;;2.40;81.00;;;0.99;76.62;97421.81;4004140;34;20042;-87
2022/01/12 07:14:00;;;;;;;9.05;5.90;;;2.40;81.00;;;1.02;76.74;97430.41;3984633;34;20387;-87
2022/01/12 07:16:26;;;;;;;8.93;5.40;;;2.40;80.60;;;1.03;76.88;97440.13;3962014;34;20038;-87
2022/01/12 07:18:58;;;;;;;8.85;5.70;;;2.40;80.50;;;1.03;77.10;97437.44;4004706;34;20005;-88
2022/01/12 07:21:26;;;;;;;10.15;5.95;;;2.40;80.50;;;1.04;76.55;97446.38;3924257;34;20296;-88
2022/01/12 07:23:56;;;;;;;8.80;6.15;;;2.40;80.40;;;1.07;76.26;97452.25;3962245;34;20305;-87
2022/01/12 07:26:24;;;;;;;9.50;6.00;;;2.40;80.40;;;1.10;76.61;97452.91;4003913;34;20367;-87
2022/01/12 07:28:51;;;;;;;10.20;5.38;;;2.50;80.20;;;1.09;76.24;97457.50;3963319;34;20676;-87
2022/01/12 07:31:17;;;;;;;7.85;5.15;;;2.50;80.10;;;1.11;76.38;97465.38;3985489;34;20298;-87
2022/01/12 07:33:44;;;;;;;7.95;5.30;;;2.50;80.30;;;1.11;76.09;97462.69;3963952;34;20541;-87
2022/01/12 07:36:10;;;;;;;8.05;5.55;;;2.50;80.00;;;1.13;76.12;97464.19;3943613;34;20089;-88
2022/01/12 07:38:36;;;;;;;7.45;5.00;;;2.50;79.80;;;1.15;75.80;97464.84;3964674;34;20088;-87
2022/01/12 07:41:03;;;;;;;7.35;4.95;;;2.50;79.80;;;1.16;75.92;97469.22;3986526;34;20599;-87
2022/01/12 07:43:29;;;;;;;5.93;4.18;;;2.50;79.50;;;1.18;75.80;97469.88;3945268;35;20229;-88
2022/01/12 07:45:56;;;;;;;7.85;5.13;;;2.50;79.60;;;1.21;75.55;97468.69;4008847;35;20014;-88
2022/01/12 07:48:23;;;;;;;7.35;4.75;;;2.50;79.40;;;1.23;75.58;97474.75;4007604;35;20307;-88
2022/01/12 07:50:49;;;;;;;7.80;4.85;;;2.60;79.30;;;1.26;75.38;97476.22;3965171;34;20299;-88
2022/01/12 07:53:16;;;;;;;8.05;4.45;;;2.60;79.50;;;1.29;74.81;97481.28;3923291;35;20289;-88
2022/01/12 07:55:42;;;;;;;8.75;5.25;;;2.60;79.30;;;1.32;75.31;97480.91;3982713;34;20069;-88
2022/01/12 07:58:09;;;;;;;8.13;4.65;;;2.60;79.20;;;1.32;75.12;97489.00;4007942;34;20068;-87
2022/01/12 08:00:35;;;;;;;10.02;5.68;;;2.70;79.30;;;1.35;75.36;97491.34;3961986;34;20024;-87
2022/01/12 08:03:02;;;;;;;9.38;5.60;;;2.70;79.10;;;1.37;74.71;97494.69;3960550;34;20296;-88
2022/01/12 08:05:28;;;;;;;8.70;4.95;;;2.70;78.90;;;1.33;74.79;97483.44;3940064;34;20052;-88
2022/01/12 08:07:55;;;;;;;8.07;4.85;;;2.70;78.80;;;1.31;74.76;97484.63;3977722;35;20317;-88
2022/01/12 08:10:21;;;;;;;8.93;5.63;;;2.70;78.80;;;1.32;74.85;97486.31;3936125;35;20263;-88
2022/01/12 08:12:48;;;;;;;8.98;5.38;;;2.70;78.70;;;1.33;74.79;97483.44;3956783;35;20280;-88
2022/01/12 08:15:14;;;;;;;8.65;5.15;;;2.70;78.80;;;1.31;74.43;97477.38;3954038;35;20075;-89
2022/01/12 08:17:41;;;;;;;8.68;5.20;;;2.70;78.30;;;1.35;74.33;97488.66;3933173;35;20310;-88
2022/01/12 08:20:17;;;;;;;7.93;4.97;;;2.70;78.00;;;1.36;74.10;97483.06;3932698;35;20277;-88
2022/01/12 08:22:43;;;;;;;10.15;4.97;;;2.70;78.00;;;1.42;74.18;97475.28;3938040;34;20073;-88
2022/01/12 08:25:10;;;;;;;7.67;4.53;;;2.70;77.90;;;1.49;74.10;97478.94;3932269;35;20287;-88
2022/01/12 08:27:37;;;;;;;8.60;5.38;;;2.80;78.00;;;1.51;73.65;97485.00;3932518;35;20009;-88
2022/01/12 08:30:14;;;;;;;8.35;5.30;;;2.80;77.80;;;1.57;73.80;97489.66;3953931;35;20505;-87
2022/01/12 08:32:41;;;;;;;6.75;4.40;;;2.80;77.40;;;1.58;73.42;97485.09;3958609;34;20284;-88
2022/01/12 08:35:07;;;;;;;8.60;4.60;;;2.90;77.40;;;1.64;73.31;97489.75;3931896;35;19990;-88
2022/01/12 08:37:34;;;;;;;6.55;4.43;;;2.90;77.30;;;1.68;73.27;97491.09;3932636;35;20292;-88
2022/01/12 08:40:00;;;;;;;6.90;4.40;;;3.00;77.20;;;1.72;73.02;97495.09;3955789;35;20208;-88
2022/01/12 08:42:26;;;;;;;8.50;4.45;;;3.00;77.10;;;1.73;73.34;97488.69;3933821;35;20081;-87
2022/01/12 08:44:53;;;;;;;8.05;4.65;;;3.00;77.00;;;1.77;73.04;97500.78;3934408;34;20664;-87
2022/01/12 08:47:19;;;;;;;7.57;4.60;;;3.10;76.80;;;1.79;73.03;97496.03;3938100;34;19998;-88
2022/01/12 08:49:46;;;;;;;8.23;4.63;;;3.10;76.90;;;1.83;73.31;97502.78;3937392;34;20328;-88
2022/01/12 08:52:12;;;;;;;8.98;4.93;;;3.10;77.00;;;1.84;73.11;97501.75;3941043;34;20303;-88
2022/01/12 08:54:38;;;;;;;9.52;5.30;;;3.10;76.90;;;1.84;73.19;97500.91;3962835;34;20009;-88
2022/01/12 08:57:05;;;;;;;6.18;3.88;;;3.20;77.00;;;1.87;73.01;97505.13;3944985;34;20326;-86
2022/01/12 08:59:32;;;;;;;6.80;4.05;;;3.20;76.90;;;1.89;73.43;97505.75;3963286;34;20005;-87
2022/01/12 09:01:59;;;;;;;6.13;3.95;;;3.20;77.20;;;1.91;73.71;97495.59;3947181;34;20084;-88
2022/01/12 09:04:27;;;;;;;5.95;4.18;;;3.20;77.20;;;1.92;73.40;97502.69;3926491;34;20384;-87
2022/01/12 09:06:59;;;;;;;6.10;4.05;;;3.20;77.20;;;1.92;73.39;97492.72;3948294;34;20316;-90
2022/01/12 09:09:26;;;;;;;6.25;4.30;;;3.20;77.20;;;1.92;73.90;97486.47;3990506;34;20286;-88
2022/01/12 09:11:53;;;;;;;6.38;3.92;;;3.20;77.40;;;1.94;73.48;97496.06;3947900;34;20629;-87
2022/01/12 09:14:19;;;;;;;7.45;5.15;;;3.20;77.40;;;1.93;73.73;97488.16;3946764;34;20002;-88
2022/01/12 09:16:54;;;;;;;7.68;4.38;;;3.20;77.50;;;1.90;73.87;97481.28;3941674;34;20578;-87
2022/01/12 09:19:24;;;;;;;5.70;4.00;;;3.20;77.60;;;1.91;74.01;97484.81;3943748;34;20064;-87
2022/01/12 09:21:51;;;;;;;9.15;5.28;;;3.20;77.80;;;1.91;74.21;97485.66;3947713;34;20541;-87
2022/01/12 09:24:17;;;;;;;6.25;4.28;;;3.20;77.90;;;1.91;74.28;97474.84;3988942;34;20164;-87
2022/01/12 09:26:43;;;;;;;7.35;5.18;;;3.20;78.00;;;1.91;74.17;97474.84;3989062;34;20293;-87
2022/01/12 09:29:10;;;;;;;6.60;4.25;;;3.20;77.90;;;1.91;74.04;97474.00;3968196;34;20376;-87
2022/01/12 09:31:36;;;;;;;6.85;4.55;;;3.20;77.90;;;1.91;74.39;97477.56;3969698;34;20008;-87
2022/01/12 09:34:07;;;;;;;7.65;4.38;;;3.20;77.90;;;1.88;74.38;97472.50;3991624;34;20650;-87
2022/01/12 09:36:33;;;;;;;6.70;4.47;;;3.20;77.90;;;1.88;74.36;97474.34;3969946;34;20275;-87
2022/01/12 09:39:00;;;;;;;7.13;4.80;;;3.20;77.90;;;1.89;74.05;97478.75;3970144;34;20117;-87
2022/01/12 09:41:27;;;;;;;6.85;4.32;;;3.20;77.90;;;1.87;74.32;97473.53;3991486;34;20068;-86
2022/01/12 09:43:54;;;;;;;7.20;4.00;;;3.20;77.90;;;1.86;74.61;97465.63;3949348;34;20323;-87
2022/01/12 09:46:26;;;;;;;7.82;5.03;;;3.20;78.00;;;1.90;74.24;97466.91;3969100;34;20322;-86
2022/01/12 09:48:53;;;;;;;6.10;3.95;;;3.20;77.90;;;1.88;74.50;97471.66;3948217;34;20084;-87
2022/01/12 09:51:20;;;;;;;7.03;4.35;;;3.20;78.00;;;1.88;74.66;97466.25;3969285;34;20290;-87
2022/01/12 09:53:46;;;;;;;6.40;4.13;;;3.20;78.00;;;1.88;74.51;97468.97;3927904;34;20356;-86
2022/01/12 09:56:24;;;;;;;8.32;4.68;;;3.20;78.00;;;1.88;74.54;97466.25;3946951;34;20027;-86
2022/01/12 09:58:56;;;;;;;7.43;4.43;;;3.20;78.00;;;1.87;74.33;97467.31;3931172;34;20382;-85
2022/01/12 10:01:39;;;;;;;10.43;5.40;;;3.20;78.10;;;1.86;74.36;97465.63;3949634;34;20005;-85
2022/01/12 10:04:23;;;;;;;6.38;4.13;;;3.20;78.10;;;1.86;74.86;97471.03;3947173;34;20321;-85
2022/01/12 10:06:56;;;;;;;6.75;4.30;;;3.20;79.00;;;1.83;74.75;97470.38;3988601;34;20828;-85
2022/01/12 10:09:39;;;;;;;7.68;4.60;;;3.20;78.10;;;1.86;74.41;97465.63;4011192;34;20663;-85
2022/01/12 10:12:13;;;;;;;7.55;4.18;;;3.20;78.20;;;1.81;74.67;97458.91;3967504;34;20335;-85
2022/01/12 10:14:43;;;;;;;5.93;4.22;;;3.20;78.20;;;1.82;74.55;97468.69;3966806;34;20016;-85
2022/01/12 10:17:10;;;;;;;6.55;4.28;;;3.20;78.20;;;1.80;74.40;97451.00;3968647;34;20308;-85
2022/01/12 10:19:36;;;;;;;7.72;4.97;;;3.20;78.20;;;1.80;74.22;97451.81;3989933;34;20212;-85
2022/01/12 10:22:10;;;;;;;8.07;4.00;;;3.20;78.30;;;1.80;74.53;97445.59;3990588;34;20286;-85
2022/01/12 10:24:39;;;;;;;6.68;4.18;;;3.20;78.30;;;1.77;74.97;97440.56;3949098;34;20052;-86
2022/01/12 10:27:15;;;;;;;6.60;3.95;;;3.10;78.30;;;1.74;75.01;97441.78;3948845;34;19998;-86
2022/01/12 10:29:42;;;;;;;7.07;4.10;;;3.10;78.40;;;1.73;74.90;97445.50;3970728;34;20342;-86
2022/01/12 10:32:08;;;;;;;8.60;4.90;;;3.10;78.50;;;1.71;75.08;97436.75;3950291;34;20568;-85
2022/01/12 10:34:46;;;;;;;7.63;4.53;;;3.10;78.50;;;1.72;74.88;97449.22;3950049;34;20053;-86
2022/01/12 10:37:26;;;;;;;6.30;4.07;;;3.10;78.50;;;1.71;74.78;97452.94;3945296;34;20000;-85
2022/01/12 10:39:54;;;;;;;7.55;4.75;;;3.10;78.50;;;1.72;74.87;97445.66;3990011;34;20014;-86
2022/01/12 10:42:24;;;;;;;7.47;5.10;;;3.10;78.50;;;1.68;75.24;97437.09;3965018;34;20348;-85
2022/01/12 10:45:04;;;;;;;9.63;4.80;;;3.10;78.50;;;1.71;75.03;97441.28;3983791;34;20347;-86
2022/01/12 10:47:32;;;;;;;6.90;4.55;;;3.10;78.60;;;1.71;74.69;97439.44;3964390;34;20080;-85
2022/01/12 10:50:08;;;;;;;6.57;4.40;;;3.10;78.60;;;1.71;74.72;97442.13;3982337;34;20262;-85
2022/01/12 10:52:49;;;;;;;7.57;4.57;;;3.10;78.50;;;1.68;75.00;97434.41;3983107;34;20333;-85
2022/01/12 10:55:17;;;;;;;7.60;4.78;;;3.10;78.50;;;1.68;75.19;97437.09;3961400;34;20005;-85
2022/01/12 10:57:45;;;;;;;7.03;4.47;;;3.10;78.50;;;1.66;74.85;97428.34;3961619;34;20017;-85
2022/01/12 11:00:18;;;;;;;6.38;4.22;;;3.10;78.50;;;1.67;75.05;97432.72;3940677;34;20291;-85
2022/01/12 11:03:00;;;;;;;10.43;4.78;;;3.10;78.50;;;1.66;74.79;97428.34;3981511;34;20343;-85
2022/01/12 11:05:29;;;;;;;9.52;4.80;;;3.00;78.40;;;1.65;75.13;97430.22;3960961;34;20252;-85
2022/01/12 11:07:55;;;;;;;7.90;5.03;;;3.00;78.40;;;1.64;74.75;97422.28;3939792;34;20024;-85
2022/01/12 11:10:22;;;;;;;7.53;4.85;;;3.00;78.50;;;1.63;75.01;97423.31;3939996;34;20721;-85
2022/01/12 11:12:50;;;;;;;6.22;4.28;;;3.00;78.50;;;1.61;74.91;97417.28;3960741;34;20006;-85
2022/01/12 11:15:20;;;;;;;7.45;4.20;;;3.00;78.50;;;1.60;75.06;97412.91;3939927;34;20033;-85
2022/01/12 11:17:50;;;;;;;9.07;4.85;;;3.00;78.50;;;1.60;74.93;97421.81;3940318;34;20305;-85
2022/01/12 11:20:30;;;;;;;7.18;4.07;;;3.00;78.60;;;1.58;75.05;97420.34;3967154;34;20296;-85
2022/01/12 11:23:17;;;;;;;6.57;4.90;;;3.00;78.60;;;1.58;75.27;97417.63;3941626;34;20006;-85
2022/01/12 11:25:52;;;;;;;7.43;4.97;;;3.00;78.70;;;1.56;75.21;97419.66;3977060;34;19993;-85
2022/01/12 11:28:22;;;;;;;6.28;4.57;;;2.90;78.70;;;1.54;74.99;97425.25;3989047;34;20290;-85
2022/01/12 11:30:50;;;;;;;6.82;4.57;;;2.90;78.70;;;1.53;75.45;97424.41;4010540;34;20084;-85
2022/01/12 11:33:21;;;;;;;6.63;4.25;;;2.90;78.70;;;1.51;75.23;97420.22;4053276;34;20004;-85
2022/01/12 11:35:53;;;;;;;6.90;4.28;;;2.90;78.80;;;1.48;75.29;97418.75;4003210;34;20442;-85
2022/01/12 11:38:29;;;;;;;6.82;4.10;;;2.90;78.80;;;1.48;75.21;97421.44;3961488;34;20002;-85
2022/01/12 11:41:08;;;;;;;8.90;4.60;;;2.90;78.90;;;1.46;75.50;97423.47;4005977;34;20280;-85
2022/01/12 11:43:45;;;;;;;6.57;4.07;;;2.90;78.90;;;1.45;74.95;97426.34;3985609;34;20082;-85
2022/01/12 11:46:14;;;;;;;6.78;4.68;;;2.90;78.90;;;1.44;75.07;97436.31;3961944;35;20376;-85
2022/01/12 11:49:00;;;;;;;6.70;4.25;;;2.80;78.80;;;1.42;75.22;97427.53;3982475;35;20313;-85
2022/01/12 11:51:39;;;;;;;8.00;4.55;;;2.80;79.00;;;1.42;75.22;97427.53;3941348;35;20581;-85
2022/01/12 11:54:15;;;;;;;6.70;4.40;;;2.80;79.00;;;1.37;75.24;97420.00;3961316;35;20290;-85
2022/01/12 11:57:08;;;;;;;7.13;4.35;;;2.80;79.00;;;1.39;75.21;97422.50;3959631;34;20347;-85